Station: Cultana (Defence)

  Atmospheric Gas Attenuation - ITU Rec 676-11   --------------- db/100km ---------------
Date Time Temp RH % AH g/m3 Dew Point Wind Direction Speed kph Gust kph Barometer mB Rainfall Since 9am 24GHz 47GHz 76GHz 122GHz 134GHz 241GHz
27 12:40 17.9 36 5.5 2.6 15 20 1013.1 0 12.9 20.2 26.7 69.6 56.8 193.1
27 12:30 17.1 37 5.39 2.3 13 24 1013.1 0 12.7 20.3 26.6 69.2 56.1 190.7
27 12:20 18.2 38 5.91 3.6 20 26 1013.1 0 13.7 20.7 28.0 73.0 61.2 208.5
27 12:10 17.2 38 5.56 2.7 6 7 1013.1 0 13.0 20.5 27.2 70.7 58.0 197.1
27 12:00 17.1 38 5.53 2.7 7 17 1013.1 0 12.9 20.5 27.1 70.5 57.7 196.2
27 11:50 16.8 40 5.72 3.1 2 4 1013.1 0 13.4 20.8 27.8 72.5 60.1 204.5
27 11:40 17.1 41 5.97 3.7 11 15 1013.1 0 13.9 21.1 28.6 74.5 62.7 213.7
27 11:30 16.7 41 5.83 3.4 15 20 1013.1 0 13.6 21.0 28.2 73.6 61.4 209.1
27 11:20 16.6 42 5.93 3.6 9 13 1013.1 0 13.8 21.1 28.6 74.6 62.6 213.4
27 11:10 16.1 44 6.03 3.8 7 9 1013.1 0 14.0 21.4 29.1 76.0 64.2 218.8
27 11:00 15.7 44 5.89 3.5 9 15 1013.1 0 13.8 21.3 28.8 75.1 62.9 214.1
27 10:50 16.1 44 6.03 3.8 7 11 1013.1 0 14.0 21.4 29.1 76.0 64.2 218.8
27 10:40 15.4 45 5.91 3.5 6 6 1013.1 0 13.8 21.4 29.0 75.6 63.3 215.8
27 10:30 15.2 46 5.97 3.7 9 17 1013.1 0 13.9 21.5 29.3 76.3 64.2 218.7
27 10:20 15.6 46 6.12 4 15 17 1013.1 0 14.2 21.6 29.6 77.3 65.6 223.8
27 10:10 14.7 48 6.04 3.8 13 15 1013.1 0 14.1 21.7 29.7 77.4 65.4 223.0
27 10:00 15.1 50 6.45 4.8 13 19 1013.1 0 15.0 22.2 31.0 81.0 70.0 239.0
27 09:50 14.8 49 6.21 4.2 13 15 1013.1 0 14.5 21.9 30.3 79.0 67.4 229.8
27 09:40 14.3 50 6.14 4 17 20 1013.1 0 14.3 22.0 30.2 78.8 66.9 228.3
27 09:30 13.8 51 6.08 3.9 13 20 1013.1 0 14.2 22.0 30.2 78.7 66.6 227.2
27 09:20 13.8 51 6.08 3.8 15 17 1013.1 0 14.2 22.0 30.2 78.7 66.6 227.2
27 09:10 13.5 53 6.2 4.3 19 22 1013.1 0 14.5 22.2 30.7 80.2 68.3 233.1
27 09:00 13.2 56 6.43 4.6 19 24 1013.1 0 15.0 22.7 31.7 82.7 71.4 243.8
27 08:50 12.7 60 6.68 5.1 19 22 1013.1 0 15.5 23.2 32.8 85.8 75.0 256.2
27 08:40 12.6 60 6.64 5.2 17 19 1013.1 0 15.5 23.1 32.7 85.5 74.6 254.8
27 08:30 12.3 63 6.84 5.5 19 22 1013.1 0 15.9 23.5 33.6 87.8 77.4 264.6
27 08:20 12.2 67 7.23 6.2 13 15 1013.1 0 16.7 24.2 35.1 92.0 82.4 282.3
27 08:10 12.2 67 7.23 6.4 13 19 1013.1 0 16.7 24.2 35.1 92.0 82.4 282.3
27 08:00 11.3 69 7.04 5.8 13 19 1013.1 0 16.4 24.1 34.8 91.0 80.9 276.9
27 07:50 11.1 70 7.05 5.8 15 17 1013.1 0 16.4 24.2 34.9 91.4 81.2 278.1
27 07:40 10.9 71 7.06 5.8 11 13 1013.1 0 16.4 24.2 35.0 91.7 81.6 279.2
27 07:30 10.7 73 7.17 6.1 9 13 1013.1 0 16.7 24.5 35.6 93.1 83.2 284.9
27 07:20 10 73 6.86 5.5 7 7 1013.1 0 16.0 24.2 34.6 90.6 79.9 273.3
27 07:10 9.8 75 6.96 5.7 7 9 1013.1 0 16.3 24.4 35.1 91.9 81.4 278.5
27 07:00 9.3 77 6.92 5.5 11 13 1013.1 0 16.2 24.4 35.2 92.1 81.4 278.5
27 06:50 8.8 79 6.88 5.3 11 13 1013.1 0 16.1 24.5 35.2 92.2 81.4 278.4
27 06:40 8.4 80 6.79 5.1 11 13 1013.1 0 15.9 24.5 35.1 91.7 80.7 275.6
27 06:30 8.1 80 6.66 4.9 15 17 1013.1 0 15.7 24.4 34.7 90.7 79.2 270.6
27 06:20 7.6 81 6.53 4.5 15 15 1013.1 0 15.4 24.3 34.4 89.9 78.0 266.3
27 06:10 7.4 82 6.52 4.5 17 17 1013.1 0 15.4 24.3 34.4 90.0 78.1 266.5
27 06:00 7.3 82 6.48 4.4 17 17 1013.1 0 15.3 24.3 34.3 89.7 77.7 265.0
27 05:50 7 85 6.59 4.6 15 17 1013.1 0 15.6 24.5 34.9 91.2 79.4 271.1
27 05:40 6.2 89 6.55 4.6 17 17 1013.1 0 15.5 24.7 35.1 91.7 79.7 272.0
27 05:30 5.5 91 6.4 4.2 13 15 1013.1 0 15.2 24.6 34.7 90.9 78.4 267.3
27 05:10 5.5 91 6.4 4.1 11 11 1013.1 0 15.2 24.6 34.7 90.9 78.4 267.3
27 04:40 5.6 90 6.37 4.1 9 9 1013.1 0 15.2 24.6 34.6 90.4 77.9 265.5
27 04:30 5.9 90 6.49 4.4 11 13 1013.1 0 15.4 24.7 34.9 91.4 79.2 270.2
27 04:20 6 89 6.46 4.4 9 9 1013.1 0 15.3 24.6 34.8 91.0 78.7 268.4
27 04:10 6 89 6.46 4.4 9 9 1013.1 0 15.3 24.6 34.8 91.0 78.7 268.4
27 04:00 6 90 6.54 4.5 9 11 1013.1 0 15.5 24.7 35.1 91.8 79.8 272.2
27 03:50 6.2 89 6.55 4.6 11 11 1013.1 0 15.5 24.7 35.1 91.7 79.7 272.0
27 03:40 6.3 89 6.59 4.6 11 11 1013.1 0 15.6 24.7 35.2 92.0 80.2 273.6
27 03:30 6.5 90 6.75 5 11 13 1013.1 0 15.9 24.9 35.7 93.5 82.1 280.5
27 03:20 6.4 89 6.64 4.8 11 11 1013.1 0 15.7 24.8 35.3 92.5 80.7 275.6
27 03:10 6.4 89 6.64 4.8 11 11 1013.1 0 15.7 24.8 35.3 92.5 80.7 275.6
27 03:00 6.2 90 6.62 4.7 9 11 1013.1 0 15.7 24.8 35.3 92.5 80.7 275.3
27 02:50 6.3 89 6.59 4.7 11 11 1013.1 0 15.6 24.7 35.2 92.0 80.2 273.6
27 02:40 6.3 89 6.59 4.7 9 9 1013.1 0 15.6 24.7 35.2 92.0 80.2 273.6
27 02:30 6.5 90 6.75 5 9 9 1013.1 0 15.9 24.9 35.7 93.5 82.1 280.5
27 02:20 6.5 89 6.68 4.8 9 9 1013.1 0 15.8 24.8 35.5 92.8 81.2 277.1
27 02:10 6.6 89 6.72 4.9 9 11 1013.1 0 15.9 24.9 35.6 93.1 81.6 278.7
27 02:00 6.6 89 6.72 4.9 9 11 1013.1 0 15.9 24.9 35.6 93.1 81.6 278.7
27 01:50 6.8 89 6.81 5.1 9 11 1013.1 0 16.1 25.0 35.9 93.8 82.6 282.2
27 01:40 6.8 88 6.73 4.9 11 11 1013.1 0 15.9 24.8 35.5 93.0 81.5 278.4
27 01:30 6.8 88 6.73 5 9 11 1013.1 0 15.9 24.8 35.5 93.0 81.5 278.4
27 01:20 7 86 6.67 4.9 9 9 1013.1 0 15.7 24.7 35.2 92.1 80.5 274.9
27 01:10 7.1 86 6.71 5 9 11 1013.1 0 15.8 24.7 35.3 92.4 80.9 276.4
27 01:00 7.3 87 6.88 5.3 9 11 1013.1 0 16.2 24.9 35.9 94.0 83.0 283.8
27 00:50 7.3 86 6.8 5.1 9 9 1013.1 0 16.0 24.8 35.6 93.1 81.9 280.0
27 00:40 7.4 86 6.84 5.2 11 11 1013.1 0 16.1 24.8 35.7 93.5 82.4 281.5
27 00:30 7.5 86 6.89 5.3 11 13 1013.1 0 16.2 24.9 35.9 93.9 82.9 283.5
27 00:20 7.5 86 6.89 5.3 11 11 1013.1 0 16.2 24.9 35.9 93.9 82.9 283.5
27 00:10 7.5 86 6.89 5.3 9 9 1013.1 0 16.2 24.9 35.9 93.9 82.9 283.5
27 00:00 7.5 85 6.81 5.1 9 9 1013.1 0 16.0 24.8 35.5 93.0 81.9 279.7
26 23:50 7.7 85 6.9 5.3 7 9 1013.1 0 16.2 24.9 35.8 93.8 82.9 283.2
26 23:40 8 84 6.95 5.4 9 9 1013.1 0 16.3 24.9 35.9 93.9 83.2 284.5
26 23:30 8.1 83 6.91 5.4 7 11 1013.1 0 16.2 24.8 35.7 93.4 82.6 282.3
26 23:20 8.2 83 6.95 5.5 7 9 1013.1 0 16.3 24.8 35.8 93.7 83.0 283.8
26 23:10 8.3 82 6.91 5.4 7 9 1013.1 0 16.2 24.7 35.6 93.1 82.4 281.6
26 23:00 8.5 82 7 5.6 9 9 1013.1 0 16.4 24.8 35.9 93.9 83.3 285.0
26 22:50 8.7 82 7.09 5.8 9 9 1013.1 0 16.6 24.9 36.1 94.6 84.3 288.5
26 22:40 8.7 82 7.09 5.8 9 11 1013.1 0 16.6 24.9 36.1 94.6 84.3 288.5
26 22:30 8.9 81 7.1 5.8 13 13 1013.1 0 16.6 24.8 36.1 94.5 84.2 288.3
26 22:20 9 82 7.23 6.1 11 13 1013.1 0 16.9 25.0 36.6 95.8 85.9 294.0
26 22:10 9.2 81 7.24 6.1 13 13 1013.1 0 16.9 25.0 36.5 95.6 85.8 293.7
26 22:00 9.3 81 7.28 6.2 13 13 1013.1 0 17.0 25.0 36.6 95.9 86.2 295.2
26 21:50 9.3 81 7.28 6.2 13 15 1013.1 0 17.0 25.0 36.6 95.9 86.2 295.2
26 21:40 9.7 79 7.29 6.2 13 15 1013.1 0 17.0 24.9 36.5 95.6 85.9 294.2
26 21:30 9.8 79 7.33 6.3 17 19 1013.1 0 17.1 25.0 36.6 95.9 86.3 295.7
26 21:20 9.8 79 7.33 6.3 17 19 1013.1 0 17.1 25.0 36.6 95.9 86.3 295.7
26 21:10 9.7 80 7.38 6.4 15 17 1013.1 0 17.2 25.1 36.8 96.5 87.1 298.4
26 21:00 9.7 80 7.38 6.4 13 17 1013.1 0 17.2 25.1 36.8 96.5 87.1 298.4
26 20:50 9.9 79 7.38 6.4 15 17 1013.1 0 17.2 25.0 36.8 96.3 86.9 297.6
26 20:40 9.9 78 7.28 6.2 13 15 1013.1 0 16.9 24.9 36.4 95.2 85.5 293.0
26 20:30 10.1 76 7.19 6.1 13 17 1013.1 0 16.7 24.7 35.9 94.0 84.1 288.0
26 20:20 10.3 75 7.18 6 11 11 1013.1 0 16.7 24.6 35.8 93.7 83.8 286.9
26 20:10 10.5 72 6.98 5.8 13 15 1013.1 0 16.3 24.2 34.9 91.3 81.0 277.0
26 20:00 10.7 72 7.07 5.9 13 17 1013.1 0 16.5 24.3 35.2 92.0 81.9 280.4
26 19:50 10.8 71 7.02 5.7 13 15 1013.1 0 16.3 24.2 34.9 91.4 81.2 277.8
26 19:40 10.9 71 7.06 5.8 17 20 1013.1 0 16.4 24.2 35.0 91.7 81.6 279.2

Last Refresh: 27-Sep-2020 12:47:45

Most of the information presented on this site is sourced from the Bureau of Meteorology.  Copyright in all material sourced from the Bureau of Meteorology resides with the Commonwealth of Australia.